Résultats événements

09/09/2018 Triathlon D Auxonne 2018-Triathlon 12 19 ans




Sortie natation

Arrivée vélo

Arrivée
Categorie:

Clt Temps de course Nom Dos Cat Temps sur l'intervalle Clt int. Gain
1 00:24:11 CHAUVIN Titouan 722 MMI 00:06:40 2 4
2 00:24:39 RAVINET Yann 735 MMI 00:07:25 6 -1
3 00:24:45 GILBERT Florian 740 MMI 00:07:27 8 -1
4 00:24:59 CHAPET Augustin 750 MMI 00:07:09 4 3
5 00:25:17 MAILLOT Nicolas 731 MBE 00:07:27 7 3
6 00:25:33 PIQUET Gabriel 701 MCA 00:08:05 15 -3
7 00:25:34 BRESSAC Justin 712 MMI 00:07:24 5 4
8 00:25:41 FAVIER Matthias 706 MMI 00:07:36 9 1
9 00:25:50 MOLINARO Enzo 753 MMP 00:08:21 20 -5
10 00:25:52 DANTAND Manon 702 FMI 00:08:04 14 -4
11 00:26:03 COMTET Alexis 745 MMI 00:07:52 10 1
12 00:26:30 RAMOISSENET Théo 730 MMI 00:08:20 18 -2
13 00:26:38 BONZI Ugolin 732 MMI 00:07:56 12 0
14 00:26:41 LATIL Marion 723 FMI 00:07:55 11 0
15 00:26:51 DURAND Renaud 734 MMI 00:07:08 3 6
16 00:27:26 DUMOULIN Alexis 726 MBE 00:08:10 16 1
17 00:27:32 GRILLOT Marie 714 FBE 00:08:46 27 -2
18 00:27:32 MAILLARD Axel 752 MMP 00:08:20 19 -2
19 00:27:49 DOUCEY Alix 728 MBE 00:04:55 1 27
20 00:28:13 WULLAERT Leo 710 MJU 00:08:34 22 -1
21 00:28:20 GABET BRUGVIN Mathis 725 MMI 00:08:41 25 -3
22 00:28:20 DEVAUX Alice 755 FMI 00:08:39 24 -2
23 00:28:35 FOIGNOT Maxence 713 MBE 00:08:32 21 1
24 00:28:52 FAVIER Lucile 707 FBE 00:08:48 28 2
25 00:29:19 LIVCHOUNE Tom 749 MMI 00:09:05 30 2
26 00:29:23 TOULOT Mathis 737 MBE 00:08:37 23 6
27 00:29:26 PAIN Gabriel 718 MMI 00:08:02 13 12
28 00:29:32 DRUET Lenni 741 MBE 00:09:30 39 -5
29 00:29:39 AMMETER Axelle 704 FBE 00:08:17 17 8
30 00:29:45 DELANCE Aurel 739 MBE 00:09:23 38 -2
31 00:29:50 RICHARD Tanguy 708 MCA 00:09:55 44 -9
32 00:29:53 VUILLEMIN Adèle 715 FMI 00:09:18 36 -3
33 00:29:55 BORRION Coline 705 FMI 00:09:06 31 0
34 00:30:06 OLID Rodrigue 754 MBE 00:09:06 32 1
35 00:30:08 CHAKRI Adele 743 FBE 00:10:05 45 -10
36 00:30:20 FLORENTIN Fanny 733 FBE 00:09:35 41 -5
37 00:30:30 VASSARD Auriane 729 FMI 00:09:08 33 1
38 00:30:31 LAURA Enderlin 742 FMI 00:08:41 26 5
39 00:30:36 ALIXANT Benjamin 720 MMI 00:09:16 35 -3
40 00:30:41 FRECHOU Inès 738 FMI 00:09:03 29 1
41 00:30:46 GEORGEON Morgane 748 FMI 00:09:50 43 -7
42 00:30:58 PAIN Victor 719 MBE 00:09:08 34 2
43 00:31:01 FASSENET Juliette 716 FMI 00:09:21 37 -1
44 00:31:02 VUILLEMIN Armance 717 FBE 00:10:18 46 -14
45 00:32:17 VENET Lucie 736 FMI 00:10:39 47 -5
46 00:33:14 GAUTHIER Anaïs 744 FBE 00:09:41 42 4
47 00:33:22 TISSIER Lucien 711 MBE 00:10:40 48 -2
48 00:34:05 OUDOT Loic 746 MMI 00:09:30 40 3
49 00:35:24 CHIODIN Juliette 703 FMI 00:12:21 51 -2
50 00:35:59 BARON Kiara 747 FBE 00:12:27 52 -1
51 00:36:01 ALIXANT Marion 721 FBE 00:10:54 49 1
52 00:38:35 FAIVRE Matéo 756 MBE 00:12:02 50 1
53 00:42:07 JACQUOT Loris 709 MBE 00:18:52 54 -5
54 00:42:09 VOISIN Emeric 751 MMI 00:13:26 53 0


Restez connectés à vos performances